Time;durP1;ratioP1;P1;durP2;ratioP2;P2;SDS_P1;SDS_P2;PMS_P1;PMS_P2;Temp;Humidity;BMP_temperature;BMP_pressure;BME280_temperature;BME280_humidity;BME280_pressure;Samples;Min_cycle;Max_cycle;Signal;HPM_P1;HPM_P2
2021/04/04 00:04:25;;;;;;;0.80;0.38;;;10.90;57.20;;;;;;20610635;28;20311;-76
2021/04/04 00:14:26;;;;;;;0.55;0.52;;;10.90;57.20;;;;;;20657036;28;20026;-76
2021/04/04 00:24:26;;;;;;;0.98;0.40;;;10.90;57.20;;;;;;20641570;28;20065;-77
2021/04/04 00:34:28;;;;;;;1.20;0.52;;;10.90;57.20;;;;;;20641391;28;20092;-77
2021/04/04 00:44:31;;;;;;;0.55;0.43;;;10.90;57.20;;;;;;20640685;28;20049;-77
2021/04/04 00:54:32;;;;;;;0.60;0.50;;;10.90;57.10;;;;;;20650964;28;20081;-78
2021/04/04 01:04:32;;;;;;;3.65;0.60;;;10.80;57.10;;;;;;20655362;28;20081;-76
2021/04/04 01:14:34;;;;;;;0.60;0.35;;;10.90;57.10;;;;;;20655188;28;20022;-76
2021/04/04 01:24:53;;;;;;;0.77;0.50;;;10.80;57.10;;;;;;20653148;28;20052;-76
2021/04/04 01:34:54;;;;;;;0.32;0.32;;;10.80;57.00;;;;;;20653110;28;20038;-76
2021/04/04 01:45:00;;;;;;;2.28;0.65;;;10.80;57.00;;;;;;20669535;28;20345;-76
2021/04/04 01:55:01;;;;;;;0.95;0.30;;;10.80;57.00;;;;;;20667607;28;20038;-75
2021/04/04 02:05:04;;;;;;;0.65;0.40;;;10.80;57.00;;;;;;20649284;28;20508;-76
2021/04/04 02:15:09;;;;;;;1.38;0.55;;;10.80;57.10;;;;;;20647366;28;20046;-76
2021/04/04 02:25:10;;;;;;;0.63;0.40;;;10.80;57.10;;;;;;20613629;28;20047;-75
2021/04/04 02:35:12;;;;;;;1.27;0.70;;;10.70;57.00;;;;;;20599917;28;20050;-75
2021/04/04 02:45:15;;;;;;;0.35;0.35;;;10.70;57.00;;;;;;20583360;28;20535;-76
2021/04/04 02:55:15;;;;;;;1.20;0.50;;;10.70;57.00;;;;;;20598284;28;20134;-77
2021/04/04 03:05:16;;;;;;;1.27;1.08;;;10.70;57.00;;;;;;20565506;28;20696;-77
2021/04/04 03:15:18;;;;;;;0.75;0.47;;;10.70;57.00;;;;;;20565121;28;20444;-75
2021/04/04 03:25:19;;;;;;;0.88;0.55;;;10.70;57.10;;;;;;20564428;28;20138;-76
2021/04/04 03:35:20;;;;;;;3.57;1.30;;;10.70;57.10;;;;;;20563582;28;20137;-77
2021/04/04 03:45:21;;;;;;;1.65;0.50;;;10.70;57.10;;;;;;20579050;28;20302;-76
2021/04/04 03:55:24;;;;;;;0.80;0.80;;;10.60;57.10;;;;;;20562717;28;20035;-77
2021/04/04 04:05:27;;;;;;;3.63;1.30;;;10.60;57.10;;;;;;20562075;28;20078;-76
2021/04/04 04:15:29;;;;;;;0.50;0.50;;;10.60;57.10;;;;;;20616417;28;20081;-76
2021/04/04 04:25:29;;;;;;;1.67;0.57;;;10.60;57.10;;;;;;20590348;28;20054;-76
2021/04/04 04:35:32;;;;;;;3.88;1.17;;;10.60;57.20;;;;;;20609518;28;20041;-76
2021/04/04 04:45:36;;;;;;;0.45;0.40;;;10.60;57.20;;;;;;20625631;28;20039;-77
2021/04/04 04:55:40;;;;;;;1.40;0.65;;;10.60;57.20;;;;;;20608051;28;20693;-77
2021/04/04 05:05:41;;;;;;;5.97;1.00;;;10.50;57.20;;;;;;20606790;28;20054;-76
2021/04/04 05:15:42;;;;;;;1.17;0.40;;;10.50;57.20;;;;;;20610483;28;20049;-77
2021/04/04 05:25:44;;;;;;;0.93;0.50;;;10.60;57.30;;;;;;20653623;28;20645;-77
2021/04/04 05:35:45;;;;;;;0.97;0.50;;;10.50;57.40;;;;;;20652942;28;20050;-77
2021/04/04 05:46:00;;;;;;;3.25;1.00;;;10.50;57.50;;;;;;20668564;28;20792;-78
2021/04/04 05:56:11;;;;;;;0.73;0.65;;;10.50;57.70;;;;;;20651760;28;20042;-77
2021/04/04 06:06:37;;;;;;;0.88;0.70;;;10.50;57.70;;;;;;20668174;28;20038;-79
2021/04/04 06:16:41;;;;;;;0.50;0.50;;;10.50;57.90;;;;;;20651803;28;20054;-79
2021/04/04 06:27:03;;;;;;;1.75;0.60;;;10.50;58.10;;;;;;20574758;28;20034;-79
2021/04/04 06:37:30;;;;;;;1.05;0.47;;;10.50;58.20;;;;;;20569031;28;20405;-79
2021/04/04 06:47:44;;;;;;;1.33;1.07;;;10.50;58.40;;;;;;20644018;28;20047;-78
2021/04/04 06:57:50;;;;;;;0.65;0.45;;;10.50;58.50;;;;;;20632434;28;20030;-78
2021/04/04 07:08:21;;;;;;;0.60;0.50;;;10.40;58.60;;;;;;20630569;28;20492;-80
2021/04/04 07:18:50;;;;;;;0.88;0.80;;;10.40;58.70;;;;;;20662513;28;20034;-79
2021/04/04 07:29:12;;;;;;;1.33;0.98;;;10.40;58.80;;;;;;20662930;28;20064;-79
2021/04/04 07:39:43;;;;;;;3.95;0.40;;;10.40;58.90;;;;;;20629298;28;20040;-80
2021/04/04 07:50:05;;;;;;;0.40;0.40;;;10.40;59.00;;;;;;20647111;28;20041;-80
2021/04/04 08:00:08;;;;;;;0.57;0.40;;;10.40;59.00;;;;;;20624975;28;20121;-79
2021/04/04 08:10:35;;;;;;;0.63;0.35;;;10.40;59.00;;;;;;20632272;28;20548;-79
2021/04/04 08:20:48;;;;;;;1.45;0.85;;;10.40;59.00;;;;;;20654682;28;20370;-77
2021/04/04 08:30:53;;;;;;;2.15;0.93;;;10.40;58.90;;;;;;21128267;23;20049;-78
2021/04/04 08:40:57;;;;;;;0.98;0.70;;;10.40;58.90;;;;;;20853439;28;20384;-75
2021/04/04 08:50:58;;;;;;;1.40;0.82;;;10.40;58.90;;;;;;20885482;28;20037;-79
2021/04/04 09:01:04;;;;;;;0.88;0.80;;;10.40;58.90;;;;;;20885424;28;20044;-80
2021/04/04 09:11:05;;;;;;;1.03;0.47;;;10.30;59.40;;;;;;20888563;28;20136;-79
2021/04/04 09:21:06;;;;;;;1.70;0.85;;;10.30;58.70;;;;;;20916774;28;20718;-80
2021/04/04 09:31:29;;;;;;;1.05;0.93;;;10.30;58.60;;;;;;20915976;28;20041;-81
2021/04/04 09:41:30;;;;;;;0.55;0.35;;;10.30;58.50;;;;;;20880217;28;20467;-75
2021/04/04 09:51:30;;;;;;;1.23;0.60;;;10.30;58.50;;;;;;20864140;28;20039;-77
2021/04/04 10:01:42;;;;;;;5.15;0.73;;;10.30;58.40;;;;;;20860252;28;20033;-78
2021/04/04 10:11:43;;;;;;;0.95;0.45;;;10.30;58.40;;;;;;20907608;28;20049;-79
2021/04/04 10:21:55;;;;;;;0.35;0.35;;;10.30;58.40;;;;;;20878327;28;20036;-82
2021/04/04 10:31:55;;;;;;;1.92;0.73;;;10.30;58.20;;;;;;20912232;28;20044;-80
2021/04/04 10:41:57;;;;;;;6.20;1.15;;;10.30;58.20;;;;;;20865028;28;20044;-81
2021/04/04 10:51:58;;;;;;;0.80;0.50;;;10.30;58.90;;;;;;20880968;28;20550;-80
2021/04/04 11:02:00;;;;;;;0.47;0.25;;;10.30;58.20;;;;;;20859560;28;20566;-80
2021/04/04 11:12:00;;;;;;;0.70;0.30;;;10.30;58.20;;;;;;20875741;28;20047;-77
2021/04/04 11:22:02;;;;;;;0.82;0.22;;;10.30;58.10;;;;;;20872880;28;20041;-77
2021/04/04 11:32:17;;;;;;;0.88;0.73;;;10.30;58.10;;;;;;20828777;28;20049;-77
2021/04/04 11:42:20;;;;;;;0.28;0.20;;;10.30;58.10;;;;;;20879981;28;20041;-80
2021/04/04 11:52:21;;;;;;;1.30;0.68;;;10.30;58.20;;;;;;20871403;28;20047;-76
2021/04/04 12:02:23;;;;;;;0.80;0.32;;;10.30;58.30;;;;;;20888942;28;20166;-76
2021/04/04 12:12:23;;;;;;;1.35;0.30;;;10.30;58.30;;;;;;20815431;28;20292;-78
2021/04/04 12:22:41;;;;;;;2.73;0.73;;;10.30;58.40;;;;;;20870418;28;20659;-78
2021/04/04 12:32:42;;;;;;;0.90;0.57;;;10.30;58.60;;;;;;20902953;28;20303;-74
2021/04/04 12:42:43;;;;;;;0.90;0.50;;;10.30;58.70;;;;;;20885605;28;20037;-76
2021/04/04 12:52:48;;;;;;;1.02;0.35;;;10.30;58.90;;;;;;20915984;28;20053;-75
2021/04/04 13:02:52;;;;;;;1.10;0.47;;;10.20;59.10;;;;;;20901085;28;20033;-74
2021/04/04 13:12:53;;;;;;;0.25;0.20;;;10.30;59.30;;;;;;20900107;28;20048;-75
2021/04/04 13:22:56;;;;;;;1.33;0.93;;;10.20;59.40;;;;;;20899310;28;20650;-78
2021/04/04 13:32:57;;;;;;;0.60;0.30;;;10.20;59.60;;;;;;20898928;28;20654;-75
2021/04/04 13:42:59;;;;;;;0.57;0.52;;;10.20;59.80;;;;;;20898664;28;20029;-79
2021/04/04 13:53:00;;;;;;;0.63;0.50;;;10.20;59.90;;;;;;20898685;28;20045;-78
2021/04/04 14:03:00;;;;;;;2.97;0.50;;;10.20;59.90;;;;;;20897488;28;20105;-80
2021/04/04 14:13:01;;;;;;;0.68;0.52;;;10.20;60.00;;;;;;20896225;28;20374;-79
2021/04/04 14:23:03;;;;;;;0.70;0.60;;;10.20;60.00;;;;;;20912050;28;20048;-79
2021/04/04 14:33:04;;;;;;;1.65;0.77;;;10.20;60.10;;;;;;20910646;28;20045;-78
2021/04/04 14:53:24;;;;;;;1.25;0.40;;;10.20;60.10;;;;;;20907925;28;20387;-79
2021/04/04 15:03:25;;;;;;;4.07;1.08;;;10.20;60.10;;;;;;20872768;28;20033;-80
2021/04/04 15:13:26;;;;;;;0.97;0.70;;;10.20;60.10;;;;;;20869339;28;20115;-79
2021/04/04 15:23:27;;;;;;;0.98;0.40;;;10.20;60.20;;;;;;20887601;28;20778;-79
2021/04/04 15:33:27;;;;;;;2.03;0.63;;;10.20;60.20;;;;;;20862247;28;20053;-79
2021/04/04 15:43:28;;;;;;;1.27;0.68;;;10.20;60.30;;;;;;20888160;28;20053;-80
2021/04/04 15:53:32;;;;;;;4.03;0.65;;;10.10;60.20;;;;;;20887865;28;20072;-79
2021/04/04 16:03:33;;;;;;;1.60;0.47;;;10.10;60.20;;;;;;20891846;28;20098;-82
2021/04/04 16:13:34;;;;;;;2.22;0.47;;;10.10;60.20;;;;;;20944894;28;20033;-78
2021/04/04 16:23:34;;;;;;;3.35;0.88;;;10.10;60.20;;;;;;20980020;28;20521;-80
2021/04/04 16:33:35;;;;;;;0.43;0.35;;;10.10;60.30;;;;;;20979380;28;20143;-81
2021/04/04 16:43:36;;;;;;;2.75;0.80;;;10.10;60.30;;;;;;20903855;28;20467;-81
2021/04/04 16:53:37;;;;;;;1.10;0.82;;;10.10;60.30;;;;;;20917599;28;20048;-80
2021/04/04 17:03:38;;;;;;;3.88;0.95;;;10.10;60.30;;;;;;20900303;28;20025;-84
2021/04/04 17:13:40;;;;;;;1.05;0.77;;;10.10;60.30;;;;;;20977912;28;20040;-79
2021/04/04 17:23:41;;;;;;;2.35;0.75;;;10.10;60.40;;;;;;20997677;28;20093;-80
2021/04/04 17:33:43;;;;;;;3.58;1.45;;;10.10;60.40;;;;;;20979730;28;20127;-80
2021/04/04 17:43:45;;;;;;;0.77;0.52;;;10.00;60.40;;;;;;20951814;28;20044;-80
2021/04/04 17:53:46;;;;;;;1.80;1.00;;;10.10;60.40;;;;;;20814705;28;20046;-80
2021/04/04 18:03:48;;;;;;;0.55;0.38;;;10.10;60.40;;;;;;20813036;28;20033;-81
2021/04/04 18:13:49;;;;;;;0.50;0.50;;;10.10;60.50;;;;;;20946918;28;20079;-81
2021/04/04 18:23:50;;;;;;;0.30;0.25;;;10.10;60.50;;;;;;20903980;28;20060;-79
2021/04/04 18:33:51;;;;;;;2.03;0.57;;;10.10;60.50;;;;;;20895504;28;20112;-80
2021/04/04 18:43:52;;;;;;;1.48;0.82;;;10.00;60.40;;;;;;20905314;28;20017;-80
2021/04/04 18:53:53;;;;;;;0.43;0.30;;;10.00;60.40;;;;;;20858187;28;20037;-80
2021/04/04 19:03:54;;;;;;;1.85;0.70;;;10.00;60.50;;;;;;20906820;28;20044;-81
2021/04/04 19:13:56;;;;;;;1.45;0.50;;;10.00;60.50;;;;;;20888463;28;20418;-80
2021/04/04 19:23:56;;;;;;;1.05;0.65;;;10.00;60.50;;;;;;20926526;28;20462;-79
2021/04/04 19:33:57;;;;;;;2.15;1.60;;;10.00;60.50;;;;;;20886822;28;20047;-83
2021/04/04 19:43:58;;;;;;;1.67;0.93;;;10.00;60.50;;;;;;20870481;28;20478;-81
2021/04/04 19:54:00;;;;;;;0.63;0.63;;;10.00;60.50;;;;;;20896699;28;20318;-81
2021/04/04 20:04:02;;;;;;;1.52;0.98;;;10.00;60.60;;;;;;20899928;28;20040;-82
2021/04/04 20:14:03;;;;;;;1.40;0.80;;;10.00;60.60;;;;;;20865009;28;20048;-82
2021/04/04 20:24:06;;;;;;;0.73;0.47;;;10.00;60.60;;;;;;20899750;28;20033;-82
2021/04/04 20:34:48;;;;;;;2.88;0.47;;;10.00;60.60;;;;;;20884922;28;20055;-82
2021/04/04 20:44:35;;;;;;;0.70;0.70;;;10.00;60.60;;;;;;20894259;28;20515;-81
2021/04/04 20:54:36;;;;;;;1.50;0.60;;;10.00;60.60;;;;;;20876512;28;20072;-81
2021/04/04 21:04:39;;;;;;;5.55;1.17;;;10.00;60.60;;;;;;20897808;28;20052;-81
2021/04/04 21:14:40;;;;;;;2.13;0.85;;;10.00;60.70;;;;;;20912875;28;20092;-81
2021/04/04 21:24:53;;;;;;;0.97;0.87;;;10.00;60.70;;;;;;20877493;28;20086;-82
2021/04/04 21:34:54;;;;;;;0.60;0.60;;;10.00;60.70;;;;;;20895924;28;20283;-82
2021/04/04 21:44:55;;;;;;;2.80;0.60;;;9.90;60.70;;;;;;20890202;28;20737;-81
2021/04/04 21:54:56;;;;;;;1.40;0.50;;;9.90;60.80;;;;;;20892188;28;20409;-81
2021/04/04 22:04:56;;;;;;;0.85;0.38;;;10.00;60.80;;;;;;20892377;28;20280;-81
2021/04/04 22:15:00;;;;;;;5.50;0.88;;;9.90;60.80;;;;;;20892290;28;20387;-81
2021/04/04 22:25:01;;;;;;;0.77;0.60;;;9.90;60.80;;;;;;20908235;28;20674;-81
2021/04/04 22:35:01;;;;;;;0.80;0.50;;;9.90;60.80;;;;;;20873472;28;20029;-81
2021/04/04 22:45:03;;;;;;;1.08;0.70;;;9.90;60.80;;;;;;20889554;28;20287;-81
2021/04/04 22:55:07;;;;;;;0.98;0.55;;;9.90;60.90;;;;;;20888260;28;20025;-81
2021/04/04 23:05:09;;;;;;;1.77;0.60;;;9.90;60.90;;;;;;20887596;28;20028;-82
2021/04/04 23:15:11;;;;;;;1.15;0.80;;;9.90;60.90;;;;;;20903808;28;20036;-81
2021/04/04 23:25:12;;;;;;;1.48;1.25;;;9.90;61.00;;;;;;20901936;28;20487;-80
2021/04/04 23:35:13;;;;;;;0.65;0.50;;;9.90;61.00;;;;;;20886626;28;20047;-80
2021/04/04 23:45:14;;;;;;;2.40;0.93;;;9.90;61.00;;;;;;20819411;28;20132;-79
2021/04/04 23:55:14;;;;;;;2.03;0.93;;;9.80;61.00;;;;;;20820511;28;20112;-79
